Time;durP1;ratioP1;P1;durP2;ratioP2;P2;SDS_P1;SDS_P2;PMS_P1;PMS_P2;Temp;Humidity;BMP_temperature;BMP_pressure;BME280_temperature;BME280_humidity;BME280_pressure;Samples;Min_cycle;Max_cycle;Signal;HPM_P1;HPM_P2
2024/01/05 00:00:02;;;;;;;;;;;8.90;99.90;;;;;;5044764;28;19984;-73
2024/01/05 00:02:30;;;;;;;;;;;9.00;99.90;;;;;;5051205;28;19924;-73
2024/01/05 00:04:58;;;;;;;;;;;9.10;99.90;;;;;;5035111;28;19921;-73
2024/01/05 00:07:26;;;;;;;;;;;9.30;99.90;;;;;;5043018;28;19927;-75
2024/01/05 00:09:53;;;;;;;;;;;9.40;99.90;;;;;;5035178;28;20342;-73
2024/01/05 00:12:22;;;;;;;;;;;9.40;99.90;;;;;;5051208;28;20374;-73
2024/01/05 00:14:50;;;;;;;;;;;9.40;99.90;;;;;;5034772;28;19925;-73
2024/01/05 00:17:18;;;;;;;;;;;9.50;99.90;;;;;;5041975;28;20022;-71
2024/01/05 00:19:46;;;;;;;;;;;9.50;99.90;;;;;;5034098;28;19975;-73
2024/01/05 00:22:14;;;;;;;;;;;9.50;99.90;;;;;;5034738;28;19921;-72
2024/01/05 00:24:41;;;;;;;;;;;9.50;99.90;;;;;;5045334;28;19968;-73
2024/01/05 00:27:09;;;;;;;;;;;9.60;99.90;;;;;;5046246;28;19928;-72
2024/01/05 00:29:39;;;;;;;;;;;9.60;99.90;;;;;;5037670;28;19928;-73
2024/01/05 00:32:07;;;;;;;;;;;9.70;99.90;;;;;;5048833;28;19921;-73
2024/01/05 00:34:36;;;;;;;;;;;9.60;99.90;;;;;;5044483;28;19928;-72
2024/01/05 00:37:04;;;;;;;;;;;9.70;99.90;;;;;;5042305;28;19975;-73
2024/01/05 00:39:34;;;;;;;;;;;9.70;99.90;;;;;;5041789;28;19932;-72
2024/01/05 00:42:02;;;;;;;;;;;9.70;99.90;;;;;;5048136;28;20417;-72
2024/01/05 00:44:30;;;;;;;;;;;9.80;99.90;;;;;;5042099;28;19928;-72
2024/01/05 00:46:59;;;;;;;;;;;9.70;99.90;;;;;;5033581;28;19924;-71
2024/01/05 00:49:27;;;;;;;;;;;9.70;99.90;;;;;;5033077;28;20501;-71
2024/01/05 00:51:55;;;;;;;;;;;9.70;99.90;;;;;;5044653;28;19920;-72
2024/01/05 00:54:23;;;;;;;;;;;9.60;99.90;;;;;;5045563;28;19931;-72
2024/01/05 00:56:50;;;;;;;;;;;9.60;99.90;;;;;;5033989;28;19960;-72
2024/01/05 00:59:19;;;;;;;;;;;9.60;99.90;;;;;;5034300;28;20027;-72
2024/01/05 01:01:47;;;;;;;;;;;9.60;99.90;;;;;;5047147;28;19928;-72
2024/01/05 01:04:16;;;;;;;;;;;9.60;99.90;;;;;;5047193;28;20028;-73
2024/01/05 01:06:44;;;;;;;;;;;9.60;99.90;;;;;;5052921;28;19936;-75
2024/01/05 01:09:14;;;;;;;;;;;9.50;99.90;;;;;;5047451;28;20007;-75
2024/01/05 01:11:41;;;;;;;;;;;9.50;99.90;;;;;;5047216;28;19924;-73
2024/01/05 01:14:09;;;;;;;;;;;9.50;99.90;;;;;;5048848;28;19943;-74
2024/01/05 01:16:37;;;;;;;;;;;9.50;99.90;;;;;;5050594;28;19921;-73
2024/01/05 01:19:05;;;;;;;;;;;9.40;99.90;;;;;;5048226;28;20317;-76
2024/01/05 01:21:34;;;;;;;;;;;9.40;99.90;;;;;;5045359;28;19948;-73
2024/01/05 01:24:02;;;;;;;;;;;9.40;99.90;;;;;;5052206;28;19959;-73
2024/01/05 01:26:30;;;;;;;;;;;9.50;99.90;;;;;;5036950;28;19924;-73
2024/01/05 01:28:58;;;;;;;;;;;9.40;99.90;;;;;;5045483;28;19921;-74
2024/01/05 01:31:27;;;;;;;;;;;9.40;99.90;;;;;;5053079;28;20388;-73
2024/01/05 01:33:55;;;;;;;;;;;9.30;99.90;;;;;;5042253;28;20119;-72
2024/01/05 01:36:23;;;;;;;;;;;9.30;99.90;;;;;;5040078;28;20365;-73
2024/01/05 01:38:52;;;;;;;;;;;9.20;99.90;;;;;;5050381;28;20451;-72
2024/01/05 01:41:20;;;;;;;;;;;9.30;99.90;;;;;;5040120;28;19999;-74
2024/01/05 01:43:49;;;;;;;;;;;9.20;99.90;;;;;;5053267;28;19921;-72
2024/01/05 01:46:21;;;;;;;;;;;9.10;99.90;;;;;;5046443;28;19925;-73
2024/01/05 01:48:48;;;;;;;;;;;9.20;99.90;;;;;;5044143;28;20019;-76
2024/01/05 01:51:17;;;;;;;;;;;9.20;99.90;;;;;;5053377;28;19921;-74
2024/01/05 01:53:45;;;;;;;;;;;9.10;99.90;;;;;;5052738;28;19920;-73
2024/01/05 01:56:14;;;;;;;;;;;9.10;99.90;;;;;;5061038;28;19984;-75
2024/01/05 01:58:43;;;;;;;;;;;9.10;99.90;;;;;;5042885;28;19925;-73
2024/01/05 02:01:11;;;;;;;;;;;9.10;99.90;;;;;;5048936;28;20014;-72
2024/01/05 02:03:39;;;;;;;;;;;9.10;99.90;;;;;;5043774;28;19921;-72
2024/01/05 02:06:07;;;;;;;;;;;9.00;99.90;;;;;;5039923;28;19927;-72
2024/01/05 02:08:35;;;;;;;;;;;9.00;99.90;;;;;;5032496;28;20036;-72
2024/01/05 02:11:03;;;;;;;;;;;8.90;99.90;;;;;;5041458;28;19933;-72
2024/01/05 02:13:32;;;;;;;;;;;8.70;99.90;;;;;;5041045;28;19921;-73
2024/01/05 02:16:00;;;;;;;;;;;8.60;99.90;;;;;;5040837;28;19921;-72
2024/01/05 02:18:28;;;;;;;;;;;8.50;99.90;;;;;;5039874;28;19934;-74
2024/01/05 02:20:57;;;;;;;;;;;8.40;99.90;;;;;;5032579;28;19947;-72
2024/01/05 02:23:27;;;;;;;;;;;8.40;99.90;;;;;;5044926;28;20019;-71
2024/01/05 02:25:55;;;;;;;;;;;8.20;99.90;;;;;;5043488;28;20307;-73
2024/01/05 02:28:23;;;;;;;;;;;8.20;99.90;;;;;;5044317;28;20483;-74
2024/01/05 02:30:54;;;;;;;;;;;8.30;99.90;;;;;;5052420;28;19921;-73
2024/01/05 02:33:22;;;;;;;;;;;8.50;99.90;;;;;;5052492;28;19921;-73
2024/01/05 02:35:50;;;;;;;;;;;8.60;99.90;;;;;;5044209;28;19921;-73
2024/01/05 02:38:18;;;;;;;;;;;8.80;99.90;;;;;;5043783;28;19920;-73
2024/01/05 02:40:48;;;;;;;;;;;8.80;99.90;;;;;;5041765;28;19927;-73
2024/01/05 02:43:15;;;;;;;;;;;8.90;99.90;;;;;;5052313;28;19920;-73
2024/01/05 02:45:43;;;;;;;;;;;8.90;99.90;;;;;;5035034;28;19933;-73
2024/01/05 02:48:11;;;;;;;;;;;9.00;99.90;;;;;;5045009;28;19921;-73
2024/01/05 02:50:39;;;;;;;;;;;9.00;99.90;;;;;;5035788;28;19953;-72
2024/01/05 02:53:07;;;;;;;;;;;9.00;99.90;;;;;;5049175;28;20308;-75
2024/01/05 02:55:34;;;;;;;;;;;9.00;99.90;;;;;;5033924;28;20388;-74
2024/01/05 02:58:04;;;;;;;;;;;9.00;99.90;;;;;;5045585;28;19921;-75
2024/01/05 03:00:32;;;;;;;;;;;9.00;99.90;;;;;;5053460;28;19920;-75
2024/01/05 03:03:00;;;;;;;;;;;8.90;99.90;;;;;;5053954;28;20366;-74
2024/01/05 03:05:28;;;;;;;;;;;8.90;99.90;;;;;;5053117;28;19974;-74
2024/01/05 03:07:55;;;;;;;;;;;8.70;99.90;;;;;;5047395;28;19920;-72
2024/01/05 03:10:23;;;;;;;;;;;8.60;99.90;;;;;;5031503;28;19932;-71
2024/01/05 03:12:52;;;;;;;;;;;8.50;99.90;;;;;;5033425;28;19936;-72
2024/01/05 03:15:21;;;;;;;;;;;8.40;99.90;;;;;;5045457;28;19927;-71
2024/01/05 03:17:49;;;;;;;;;;;8.30;99.90;;;;;;5031860;28;20144;-72
2024/01/05 03:20:17;;;;;;;;;;;8.30;99.90;;;;;;5031362;28;19928;-72
2024/01/05 03:22:45;;;;;;;;;;;8.40;99.90;;;;;;5041475;28;19924;-73
2024/01/05 03:25:13;;;;;;;;;;;8.30;99.90;;;;;;5039177;28;19925;-72
2024/01/05 03:27:41;;;;;;;;;;;8.00;99.90;;;;;;5031685;28;19971;-71
2024/01/05 03:30:08;;;;;;;;;;;8.10;99.90;;;;;;5039596;28;19925;-76
2024/01/05 03:32:38;;;;;;;;;;;8.10;99.90;;;;;;5054757;28;19925;-76
2024/01/05 03:35:06;;;;;;;;;;;8.10;99.90;;;;;;5046042;28;19956;-78
2024/01/05 03:37:34;;;;;;;;;;;8.10;99.90;;;;;;5053875;28;19931;-79
2024/01/05 03:40:02;;;;;;;;;;;8.10;99.90;;;;;;5052622;28;19921;-76
2024/01/05 03:42:30;;;;;;;;;;;8.10;99.90;;;;;;5053068;28;19931;-75
2024/01/05 03:44:58;;;;;;;;;;;7.80;99.90;;;;;;5054447;28;20231;-75
2024/01/05 03:47:26;;;;;;;;;;;7.60;99.90;;;;;;5053703;28;20008;-76
2024/01/05 03:49:55;;;;;;;;;;;7.50;99.90;;;;;;5053216;28;20015;-76
2024/01/05 03:52:23;;;;;;;;;;;7.20;99.90;;;;;;5047146;28;19921;-74
2024/01/05 03:54:51;;;;;;;;;;;7.20;99.90;;;;;;5059238;28;19920;-75
2024/01/05 03:57:21;;;;;;;;;;;7.20;99.90;;;;;;5052676;28;20271;-76
2024/01/05 03:59:49;;;;;;;;;;;7.10;99.90;;;;;;5051915;28;20023;-75
2024/01/05 04:02:16;;;;;;;;;;;7.10;99.90;;;;;;5051915;28;19927;-75
2024/01/05 04:04:44;;;;;;;;;;;7.20;99.90;;;;;;5052035;28;19968;-75
2024/01/05 04:07:14;;;;;;;;;;;7.20;99.90;;;;;;5040341;28;19924;-74
2024/01/05 04:09:42;;;;;;;;;;;7.30;99.90;;;;;;5057701;28;19925;-75
2024/01/05 04:12:11;;;;;;;;;;;7.30;99.90;;;;;;5050876;28;20016;-75
2024/01/05 04:14:39;;;;;;;;;;;7.30;99.90;;;;;;5055675;28;19921;-74
2024/01/05 04:17:06;;;;;;;;;;;7.30;99.90;;;;;;5049910;28;19920;-74
2024/01/05 04:19:34;;;;;;;;;;;7.20;99.90;;;;;;5047388;28;19964;-77
2024/01/05 04:22:04;;;;;;;;;;;7.10;99.90;;;;;;5046297;28;19971;-79
2024/01/05 04:24:33;;;;;;;;;;;7.10;99.90;;;;;;5048594;28;20300;-72
2024/01/05 04:27:01;;;;;;;;;;;7.20;99.90;;;;;;5042421;28;19928;-72
2024/01/05 04:29:29;;;;;;;;;;;7.40;99.90;;;;;;5045862;28;19936;-72
2024/01/05 04:31:56;;;;;;;;;;;7.50;99.90;;;;;;5055927;28;19928;-73
2024/01/05 04:34:24;;;;;;;;;;;7.40;99.90;;;;;;5042153;28;19991;-71
2024/01/05 04:36:52;;;;;;;;;;;7.40;99.90;;;;;;5044325;28;19943;-73
2024/01/05 04:39:20;;;;;;;;;;;7.50;99.90;;;;;;5043067;28;19925;-73
2024/01/05 04:41:49;;;;;;;;;;;7.50;99.90;;;;;;5035097;28;20020;-73
2024/01/05 04:44:17;;;;;;;;;;;7.30;99.90;;;;;;5039535;28;19928;-72
2024/01/05 04:46:45;;;;;;;;;;;7.20;99.90;;;;;;5038640;28;19932;-72
2024/01/05 04:49:13;;;;;;;;;;;7.10;99.90;;;;;;5047369;28;19928;-72
2024/01/05 04:51:41;;;;;;;;;;;7.10;99.90;;;;;;5046562;28;19928;-72
2024/01/05 04:54:11;;;;;;;;;;;7.20;99.90;;;;;;5041773;28;19925;-73
2024/01/05 04:56:39;;;;;;;;;;;7.20;99.90;;;;;;5043498;28;19921;-72
2024/01/05 04:59:08;;;;;;;;;;;7.30;99.90;;;;;;5046419;28;19944;-73
2024/01/05 05:01:36;;;;;;;;;;;7.30;99.90;;;;;;5041313;28;19925;-73
2024/01/05 05:04:04;;;;;;;;;;;7.40;99.90;;;;;;5045961;28;19928;-73
2024/01/05 05:06:32;;;;;;;;;;;7.50;99.90;;;;;;5045821;28;19921;-73
2024/01/05 05:09:00;;;;;;;;;;;7.70;99.90;;;;;;5054076;28;19924;-73
2024/01/05 05:11:28;;;;;;;;;;;7.60;99.90;;;;;;5053192;28;19921;-72
2024/01/05 05:13:56;;;;;;;;;;;7.40;99.90;;;;;;5039653;28;19928;-73
2024/01/05 05:16:25;;;;;;;;;;;7.50;99.90;;;;;;5056021;28;19990;-72
2024/01/05 05:18:53;;;;;;;;;;;7.50;99.90;;;;;;5050774;28;19921;-73
2024/01/05 05:21:21;;;;;;;;;;;7.60;99.90;;;;;;5053548;28;19944;-73
2024/01/05 05:23:49;;;;;;;;;;;7.70;99.90;;;;;;5043977;28;19921;-73
2024/01/05 05:26:17;;;;;;;;;;;7.70;99.90;;;;;;5054129;28;19927;-75
2024/01/05 05:28:44;;;;;;;;;;;7.70;99.90;;;;;;5053890;28;19962;-72
2024/01/05 05:31:13;;;;;;;;;;;7.70;99.90;;;;;;5047978;28;19928;-73
2024/01/05 05:33:42;;;;;;;;;;;7.70;99.90;;;;;;5053862;28;20384;-73
2024/01/05 05:36:10;;;;;;;;;;;7.70;99.90;;;;;;5048345;28;19979;-74
2024/01/05 05:38:38;;;;;;;;;;;7.90;99.90;;;;;;5052744;28;19982;-73
2024/01/05 05:41:05;;;;;;;;;;;7.90;99.90;;;;;;5044633;28;19921;-72
2024/01/05 05:43:33;;;;;;;;;;;8.00;99.90;;;;;;5039466;28;19921;-73
2024/01/05 05:46:01;;;;;;;;;;;8.10;99.90;;;;;;5034477;28;19928;-73
2024/01/05 05:48:29;;;;;;;;;;;8.00;99.90;;;;;;5053636;28;20307;-73
2024/01/05 05:50:58;;;;;;;;;;;8.10;99.90;;;;;;5052741;28;20376;-75
2024/01/05 05:53:26;;;;;;;;;;;8.10;99.90;;;;;;5040521;28;19925;-71
2024/01/05 05:55:54;;;;;;;;;;;8.00;99.90;;;;;;5036457;28;20384;-73
2024/01/05 05:58:22;;;;;;;;;;;8.00;99.90;;;;;;5045071;28;19925;-73
2024/01/05 06:00:50;;;;;;;;;;;7.70;99.90;;;;;;5050499;28;20338;-73
2024/01/05 06:03:18;;;;;;;;;;;7.60;99.90;;;;;;5049418;28;19927;-73
2024/01/05 06:05:46;;;;;;;;;;;7.50;99.90;;;;;;5041349;28;19931;-72
2024/01/05 06:08:15;;;;;;;;;;;7.40;99.90;;;;;;5049357;28;19955;-73
2024/01/05 06:10:43;;;;;;;;;;;7.30;99.90;;;;;;5046965;28;19921;-73
2024/01/05 06:13:11;;;;;;;;;;;7.20;99.90;;;;;;5069706;28;19920;-72
2024/01/05 06:15:39;;;;;;;;;;;7.10;99.90;;;;;;5052274;28;19921;-72
2024/01/05 06:18:08;;;;;;;;;;;7.00;99.90;;;;;;5048568;28;19961;-73
2024/01/05 06:20:36;;;;;;;;;;;7.10;99.90;;;;;;5050877;28;20368;-72
2024/01/05 06:23:04;;;;;;;;;;;7.00;99.90;;;;;;5052149;28;19924;-73
2024/01/05 06:25:33;;;;;;;;;;;7.00;99.90;;;;;;5047986;28;20423;-73
2024/01/05 06:28:01;;;;;;;;;;;7.10;99.90;;;;;;5044272;28;19920;-73
2024/01/05 06:30:29;;;;;;;;;;;7.10;99.90;;;;;;5049999;28;19921;-73
2024/01/05 06:32:57;;;;;;;;;;;7.20;99.90;;;;;;5043939;28;19921;-73
2024/01/05 06:35:25;;;;;;;;;;;7.10;99.90;;;;;;5043902;28;19968;-73
2024/01/05 06:37:52;;;;;;;;;;;7.10;99.90;;;;;;5043698;28;20547;-71
2024/01/05 06:40:20;;;;;;;;;;;7.10;99.90;;;;;;5047544;28;19921;-74
2024/01/05 06:42:49;;;;;;;;;;;7.30;99.90;;;;;;5043185;28;20362;-72
2024/01/05 06:45:17;;;;;;;;;;;7.60;99.90;;;;;;5048584;28;19928;-74
2024/01/05 06:47:45;;;;;;;;;;;7.70;99.90;;;;;;5044509;28;19925;-75
2024/01/05 06:50:13;;;;;;;;;;;7.70;99.90;;;;;;5047614;28;20330;-76
2024/01/05 06:52:41;;;;;;;;;;;7.70;99.90;;;;;;5048929;28;19921;-74
2024/01/05 06:55:09;;;;;;;;;;;7.70;99.90;;;;;;5047713;28;19936;-75
2024/01/05 06:57:37;;;;;;;;;;;7.50;99.90;;;;;;5047323;28;20384;-74
2024/01/05 07:00:08;;;;;;;;;;;7.40;99.90;;;;;;5048788;28;20281;-74
2024/01/05 07:02:37;;;;;;;;;;;7.20;99.90;;;;;;5050951;28;19920;-74
2024/01/05 07:05:05;;;;;;;;;;;7.10;99.90;;;;;;5050805;28;20295;-74
2024/01/05 07:07:33;;;;;;;;;;;7.20;99.90;;;;;;5050981;28;19928;-74
2024/01/05 07:10:01;;;;;;;;;;;7.40;99.90;;;;;;5053001;28;20349;-74
2024/01/05 07:12:29;;;;;;;;;;;7.40;99.90;;;;;;5044262;28;20007;-74
2024/01/05 07:14:57;;;;;;;;;;;7.60;99.90;;;;;;5047411;28;20290;-73
2024/01/05 07:17:26;;;;;;;;;;;7.70;99.90;;;;;;5044329;28;19931;-75
2024/01/05 07:19:54;;;;;;;;;;;7.60;99.90;;;;;;5039276;28;20025;-70
2024/01/05 07:22:21;;;;;;;;;;;7.30;99.90;;;;;;5038285;28;19928;-74
2024/01/05 07:24:49;;;;;;;;;;;7.20;99.90;;;;;;5039462;28;19970;-73
2024/01/05 07:27:17;;;;;;;;;;;7.00;99.90;;;;;;5037879;28;19929;-72
2024/01/05 07:29:45;;;;;;;;;;;6.90;99.90;;;;;;5039743;28;20006;-72
2024/01/05 07:32:12;;;;;;;;;;;6.70;99.90;;;;;;5039243;28;19995;-70
2024/01/05 07:34:42;;;;;;;;;;;6.60;99.90;;;;;;5039262;28;19929;-73
2024/01/05 07:37:09;;;;;;;;;;;6.50;99.90;;;;;;5037986;28;20399;-70
2024/01/05 07:39:37;;;;;;;;;;;6.40;99.90;;;;;;5039361;28;19936;-75
2024/01/05 07:42:05;;;;;;;;;;;6.40;99.90;;;;;;5036367;28;19986;-71
2024/01/05 07:44:33;;;;;;;;;;;6.40;99.90;;;;;;5036225;28;19928;-75
2024/01/05 07:47:01;;;;;;;;;;;6.30;99.90;;;;;;5034111;28;19921;-72
2024/01/05 07:49:29;;;;;;;;;;;6.30;99.90;;;;;;5036117;28;19940;-74
2024/01/05 07:51:58;;;;;;;;;;;6.30;99.90;;;;;;5037136;28;20019;-76
2024/01/05 07:54:26;;;;;;;;;;;6.30;99.90;;;;;;5036442;28;19968;-74
2024/01/05 07:56:54;;;;;;;;;;;6.20;99.90;;;;;;5034788;28;19991;-70
2024/01/05 07:59:22;;;;;;;;;;;6.30;99.90;;;;;;5035393;28;19925;-74
2024/01/05 08:01:51;;;;;;;;;;;6.40;99.90;;;;;;5039299;28;19925;-73
2024/01/05 08:04:19;;;;;;;;;;;6.40;99.90;;;;;;5040534;28;20435;-75
2024/01/05 08:06:48;;;;;;;;;;;6.50;99.90;;;;;;5037626;28;20195;-71
2024/01/05 08:09:17;;;;;;;;;;;6.50;99.90;;;;;;5039236;28;19929;-71
2024/01/05 08:11:45;;;;;;;;;;;6.50;99.90;;;;;;5040537;28;19929;-72
2024/01/05 08:14:14;;;;;;;;;;;6.50;99.90;;;;;;5040206;28;19947;-73
2024/01/05 08:16:41;;;;;;;;;;;6.60;99.90;;;;;;5037057;28;19983;-69
2024/01/05 08:19:10;;;;;;;;;;;6.60;99.90;;;;;;5039966;28;19952;-70
2024/01/05 08:21:38;;;;;;;;;;;6.80;99.90;;;;;;5038935;28;19935;-70
2024/01/05 08:24:06;;;;;;;;;;;7.00;99.90;;;;;;5039199;28;20403;-74
2024/01/05 08:26:35;;;;;;;;;;;7.30;99.90;;;;;;5036594;28;19928;-72
2024/01/05 08:29:03;;;;;;;;;;;7.40;99.90;;;;;;5030350;28;20402;-74
2024/01/05 08:31:30;;;;;;;;;;;7.50;99.90;;;;;;5039017;28;20415;-74
2024/01/05 08:33:58;;;;;;;;;;;7.50;99.90;;;;;;5039192;28;19947;-75
2024/01/05 08:36:28;;;;;;;;;;;7.50;99.90;;;;;;5037488;28;19937;-70
2024/01/05 08:38:56;;;;;;;;;;;7.50;99.90;;;;;;5039820;28;20584;-69
2024/01/05 08:41:24;;;;;;;;;;;7.40;99.90;;;;;;5038925;28;19929;-71
2024/01/05 08:43:53;;;;;;;;;;;7.40;99.90;;;;;;5040214;28;20314;-74
2024/01/05 08:46:21;;;;;;;;;;;7.30;99.90;;;;;;5036521;28;19972;-71
2024/01/05 08:48:49;;;;;;;;;;;7.20;99.90;;;;;;5040231;28;20396;-75
2024/01/05 08:51:17;;;;;;;;;;;7.10;99.90;;;;;;5038689;28;20391;-71
2024/01/05 08:53:45;;;;;;;;;;;7.20;99.90;;;;;;5040423;28;19929;-71
2024/01/05 08:56:13;;;;;;;;;;;7.20;99.90;;;;;;5037001;28;19928;-73
2024/01/05 08:58:41;;;;;;;;;;;7.20;99.90;;;;;;5039612;28;20387;-69
2024/01/05 09:01:11;;;;;;;;;;;7.20;99.90;;;;;;5038730;28;20035;-74
2024/01/05 09:03:39;;;;;;;;;;;7.20;99.90;;;;;;5038403;28;19928;-69
2024/01/05 09:06:07;;;;;;;;;;;7.30;99.90;;;;;;5035469;28;19936;-71
2024/01/05 09:08:35;;;;;;;;;;;7.40;99.90;;;;;;5038378;28;19935;-70
2024/01/05 09:11:04;;;;;;;;;;;7.70;99.90;;;;;;5038719;28;19935;-73
2024/01/05 09:13:32;;;;;;;;;;;7.90;99.90;;;;;;5037496;28;20004;-72
2024/01/05 09:16:03;;;;;;;;;;;8.00;99.90;;;;;;5035032;28;20194;-75
2024/01/05 09:18:33;;;;;;;;;;;8.00;99.90;;;;;;5038485;28;19921;-74
2024/01/05 09:21:02;;;;;;;;;;;8.00;99.90;;;;;;5037553;28;19921;-70
2024/01/05 09:23:30;;;;;;;;;;;8.00;99.90;;;;;;5038621;28;19928;-73
2024/01/05 09:25:58;;;;;;;;;;;8.00;99.90;;;;;;5036534;28;20292;-74
2024/01/05 09:28:26;;;;;;;;;;;7.90;99.90;;;;;;5038970;28;20407;-71
2024/01/05 09:30:54;;;;;;;;;;;7.80;99.90;;;;;;5038238;28;20478;-70
2024/01/05 09:33:24;;;;;;;;;;;7.70;99.90;;;;;;5038569;28;20406;-72
2024/01/05 09:35:53;;;;;;;;;;;7.60;99.90;;;;;;5035802;28;20019;-73
2024/01/05 09:38:21;;;;;;;;;;;7.60;99.90;;;;;;5038212;28;20027;-69
2024/01/05 09:40:52;;;;;;;;;;;7.50;99.90;;;;;;5037970;28;20606;-75
2024/01/05 09:43:22;;;;;;;;;;;7.50;99.90;;;;;;5038058;28;20910;-72
2024/01/05 09:45:50;;;;;;;;;;;7.50;99.90;;;;;;5036939;28;20598;-70
2024/01/05 09:48:19;;;;;;;;;;;7.50;99.90;;;;;;5037549;28;19936;-71
2024/01/05 09:50:50;;;;;;;;;;;7.50;99.90;;;;;;5038033;28;19924;-73
2024/01/05 09:53:20;;;;;;;;;;;7.50;99.90;;;;;;5038950;28;19928;-72
2024/01/05 09:55:48;;;;;;;;;;;7.60;99.90;;;;;;5036085;28;19935;-71
2024/01/05 09:58:16;;;;;;;;;;;7.60;99.90;;;;;;5028358;28;19936;-74
2024/01/05 10:00:45;;;;;;;;;;;7.60;99.90;;;;;;5038416;28;19983;-70
2024/01/05 10:03:15;;;;;;;;;;;7.60;99.90;;;;;;5038090;28;20087;-70
2024/01/05 10:05:43;;;;;;;;;;;7.60;99.90;;;;;;5035305;28;19929;-70
2024/01/05 10:08:11;;;;;;;;;;;7.60;99.90;;;;;;5038054;28;20410;-68
2024/01/05 10:10:47;;;;;;;;;;;7.60;99.90;;;;;;5036700;28;19935;-71
2024/01/05 10:13:16;;;;;;;;;;;7.60;99.90;;;;;;5038515;28;19967;-71
2024/01/05 10:15:54;;;;;;;;;;;7.60;99.90;;;;;;5035655;28;19951;-73
2024/01/05 10:18:22;;;;;;;;;;;7.60;99.90;;;;;;5038255;28;19954;-71
2024/01/05 10:20:53;;;;;;;;;;;7.70;99.90;;;;;;5036650;28;20299;-73
2024/01/05 10:23:20;;;;;;;;;;;7.80;99.90;;;;;;5037702;28;19935;-71
2024/01/05 10:25:51;;;;;;;;;;;7.80;99.90;;;;;;5034544;28;19924;-72
2024/01/05 10:28:24;;;;;;;;;;;7.80;99.90;;;;;;5038302;28;19928;-74
2024/01/05 10:30:53;;;;;;;;;;;7.80;99.90;;;;;;5037257;28;19931;-74
2024/01/05 10:33:21;;;;;;;;;;;7.80;99.90;;;;;;5037980;28;19928;-70
2024/01/05 10:35:49;;;;;;;;;;;7.90;99.90;;;;;;5035732;28;20293;-73
2024/01/05 10:38:17;;;;;;;;;;;7.90;99.90;;;;;;5037765;28;19924;-71
2024/01/05 10:40:45;;;;;;;;;;;7.90;99.90;;;;;;5036672;28;19932;-69
2024/01/05 10:43:16;;;;;;;;;;;8.00;99.90;;;;;;5036858;28;19932;-69
2024/01/05 10:45:44;;;;;;;;;;;8.00;99.90;;;;;;5034925;28;20415;-73
2024/01/05 10:48:14;;;;;;;;;;;8.00;99.90;;;;;;5038105;28;20728;-71
2024/01/05 10:50:43;;;;;;;;;;;8.00;99.90;;;;;;5036810;28;19929;-70
2024/01/05 10:53:13;;;;;;;;;;;8.10;99.90;;;;;;5037507;28;19931;-68
2024/01/05 10:55:42;;;;;;;;;;;8.00;99.90;;;;;;5034894;28;20478;-68
2024/01/05 10:58:11;;;;;;;;;;;8.00;99.90;;;;;;5036173;28;20407;-68
2024/01/05 11:00:40;;;;;;;;;;;8.00;99.90;;;;;;5035809;28;20535;-71
2024/01/05 11:03:10;;;;;;;;;;;8.00;99.90;;;;;;5036765;28;19929;-69
2024/01/05 11:05:40;;;;;;;;;;;8.10;99.90;;;;;;5034580;28;20346;-68
2024/01/05 11:08:15;;;;;;;;;;;8.10;99.90;;;;;;5036551;28;20716;-70
2024/01/05 11:10:47;;;;;;;;;;;8.10;99.90;;;;;;5035703;28;20043;-69
2024/01/05 11:13:22;;;;;;;;;;;8.10;99.90;;;;;;5037791;28;20358;-70
2024/01/05 11:16:11;;;;;;;;;;;8.20;99.90;;;;;;5034966;28;20311;-74
2024/01/05 11:18:54;;;;;;;;;;;8.20;99.90;;;;;;5036074;28;19932;-69
2024/01/05 11:21:25;;;;;;;;;;;8.20;99.90;;;;;;5036075;28;19932;-69
2024/01/05 11:23:53;;;;;;;;;;;8.20;99.90;;;;;;5037229;28;20015;-71
2024/01/05 11:26:31;;;;;;;;;;;8.20;99.90;;;;;;5034571;28;19935;-70
2024/01/05 11:28:59;;;;;;;;;;;8.20;99.90;;;;;;5037810;28;19920;-72
2024/01/05 11:31:46;;;;;;;;;;;8.30;99.90;;;;;;5045109;28;19928;-71
2024/01/05 11:34:31;;;;;;;;;;;8.20;99.90;;;;;;5039619;28;19931;-72
2024/01/05 11:36:59;;;;;;;;;;;8.30;99.90;;;;;;5033257;28;19982;-72
2024/01/05 11:39:44;;;;;;;;;;;8.30;99.90;;;;;;5035328;28;19929;-68
2024/01/05 11:42:27;;;;;;;;;;;8.30;99.90;;;;;;5036493;28;19935;-70
2024/01/05 11:44:55;;;;;;;;;;;8.40;99.90;;;;;;5036572;28;20029;-69
2024/01/05 11:47:39;;;;;;;;;;;8.40;99.90;;;;;;5034861;28;19935;-74
2024/01/05 11:50:30;;;;;;;;;;;8.50;99.90;;;;;;5034541;28;19951;-72
2024/01/05 11:53:09;;;;;;;;;;;8.80;99.90;;;;;;5028293;28;19924;-73
2024/01/05 11:55:40;;;;;;;;;;;9.10;99.90;;;;;;5030932;28;19928;-73
2024/01/05 11:58:10;;;;;;;;;;;9.30;99.90;;;;;;5033952;28;20280;-72
2024/01/05 12:00:40;;;;;;;;;;;9.50;99.90;;;;;;5027131;28;19942;-75
2024/01/05 12:03:08;;;;;;;;;;;9.40;99.90;;;;;;5035493;28;19935;-74
2024/01/05 12:05:38;;;;;;;;;;;9.40;99.90;;;;;;5028279;28;19940;-72
2024/01/05 12:08:09;;;;;;;;;;;9.30;99.90;;;;;;5057592;28;19922;-71
2024/01/05 12:10:37;;;;;;;;;;;9.20;99.90;;;;;;5049391;28;19999;-71
2024/01/05 12:13:05;;;;;;;;;;;9.20;99.90;;;;;;5050762;28;19960;-70
2024/01/05 12:15:33;;;;;;;;;;;9.20;99.90;;;;;;5050614;28;20403;-70
2024/01/05 12:18:02;;;;;;;;;;;9.10;99.90;;;;;;5050611;28;19917;-70
2024/01/05 12:20:30;;;;;;;;;;;9.10;99.90;;;;;;5050144;28;20366;-70
2024/01/05 12:22:59;;;;;;;;;;;9.10;99.90;;;;;;5049822;28;19921;-70
2024/01/05 12:25:27;;;;;;;;;;;9.20;99.90;;;;;;5049485;28;19928;-70
2024/01/05 12:27:55;;;;;;;;;;;9.20;99.90;;;;;;5050764;28;19921;-70
2024/01/05 12:30:23;;;;;;;;;;;9.30;99.90;;;;;;5050067;28;19924;-72
2024/01/05 12:32:52;;;;;;;;;;;9.40;99.90;;;;;;5042539;28;19925;-73
2024/01/05 12:35:20;;;;;;;;;;;9.50;99.90;;;;;;5051030;28;19974;-70
2024/01/05 12:37:52;;;;;;;;;;;9.50;99.90;;;;;;5050186;28;20350;-71
2024/01/05 12:40:25;;;;;;;;;;;9.60;99.90;;;;;;5031415;28;19927;-71
2024/01/05 12:42:54;;;;;;;;;;;9.60;99.90;;;;;;5053523;28;19921;-70
2024/01/05 12:45:22;;;;;;;;;;;9.80;99.90;;;;;;5049967;28;20015;-70
2024/01/05 12:47:51;;;;;;;;;;;9.70;99.90;;;;;;5050741;28;19963;-72
2024/01/05 12:50:26;;;;;;;;;;;9.70;99.90;;;;;;5048766;28;19929;-70
2024/01/05 12:52:54;;;;;;;;;;;9.70;99.90;;;;;;5054202;28;20449;-71
2024/01/05 12:55:30;;;;;;;;;;;9.60;99.90;;;;;;5047983;28;20020;-73
2024/01/05 12:58:01;;;;;;;;;;;9.70;99.90;;;;;;5053836;28;20015;-69
2024/01/05 13:00:30;;;;;;;;;;;9.70;99.90;;;;;;5037791;28;19921;-71
2024/01/05 13:02:58;;;;;;;;;;;9.70;99.90;;;;;;5053873;28;19921;-71
2024/01/05 13:05:29;;;;;;;;;;;9.70;99.90;;;;;;5036233;28;19921;-71
2024/01/05 13:07:58;;;;;;;;;;;9.70;99.90;;;;;;5035436;28;19921;-70
2024/01/05 13:10:26;;;;;;;;;;;9.70;99.90;;;;;;5035289;28;20015;-70
2024/01/05 13:12:56;;;;;;;;;;;9.70;99.90;;;;;;5052437;28;19952;-70
2024/01/05 13:15:24;;;;;;;;;;;9.60;99.90;;;;;;5053856;28;19920;-72
2024/01/05 13:17:52;;;;;;;;;;;9.60;99.90;;;;;;5053570;28;20252;-70
2024/01/05 13:20:22;;;;;;;;;;;9.50;99.90;;;;;;5052620;28;20425;-71
2024/01/05 13:22:51;;;;;;;;;;;9.60;99.90;;;;;;5053673;28;20373;-68
2024/01/05 13:25:19;;;;;;;;;;;9.60;99.90;;;;;;5060289;28;19928;-69
2024/01/05 13:27:47;;;;;;;;;;;9.60;99.90;;;;;;5027765;28;19924;-71
2024/01/05 13:30:17;;;;;;;;;;;9.60;99.90;;;;;;5052266;28;20414;-70
2024/01/05 13:32:46;;;;;;;;;;;9.60;99.90;;;;;;5026461;28;19925;-70
2024/01/05 13:35:14;;;;;;;;;;;9.60;99.90;;;;;;5036117;28;19959;-68
2024/01/05 13:37:42;;;;;;;;;;;9.60;99.90;;;;;;5058291;28;20440;-68
2024/01/05 13:40:10;;;;;;;;;;;9.60;99.90;;;;;;5043118;28;19921;-69
2024/01/05 13:42:38;;;;;;;;;;;9.70;99.90;;;;;;5057372;28;19920;-69
2024/01/05 13:45:07;;;;;;;;;;;9.60;99.90;;;;;;5059635;28;19931;-68
2024/01/05 13:47:36;;;;;;;;;;;9.60;99.90;;;;;;5036691;28;19925;-70
2024/01/05 13:50:04;;;;;;;;;;;9.50;99.90;;;;;;5041439;28;19924;-69
2024/01/05 13:52:32;;;;;;;;;;;9.50;99.90;;;;;;5038875;28;19920;-69
2024/01/05 13:55:00;;;;;;;;;;;9.50;99.90;;;;;;5041667;28;19945;-70
2024/01/05 13:57:29;;;;;;;;;;;9.40;99.90;;;;;;5064530;28;19921;-69
2024/01/05 13:59:58;;;;;;;;;;;9.40;99.90;;;;;;5055253;28;20307;-69
2024/01/05 14:02:26;;;;;;;;;;;9.40;99.90;;;;;;5055213;28;19960;-69
2024/01/05 14:04:55;;;;;;;;;;;9.40;99.90;;;;;;5041276;28;19921;-69
2024/01/05 14:07:23;;;;;;;;;;;9.40;99.90;;;;;;5061752;28;19924;-69
2024/01/05 14:09:51;;;;;;;;;;;9.30;99.90;;;;;;5054619;28;19921;-68
2024/01/05 14:12:19;;;;;;;;;;;9.40;99.90;;;;;;5056719;28;19927;-70
2024/01/05 14:14:47;;;;;;;;;;;9.40;99.90;;;;;;5051006;28;19928;-70
2024/01/05 14:17:15;;;;;;;;;;;9.40;99.90;;;;;;5034584;28;19924;-69
2024/01/05 14:19:44;;;;;;;;;;;9.30;99.90;;;;;;5039057;28;19983;-69
2024/01/05 14:22:14;;;;;;;;;;;9.30;99.90;;;;;;5062486;28;20292;-69
2024/01/05 14:24:42;;;;;;;;;;;9.30;99.90;;;;;;5057417;28;19920;-69
2024/01/05 14:27:10;;;;;;;;;;;9.30;99.90;;;;;;5059237;28;20399;-69
2024/01/05 14:29:38;;;;;;;;;;;9.20;99.90;;;;;;5058809;28;19928;-70
2024/01/05 14:32:07;;;;;;;;;;;9.20;99.90;;;;;;5053460;28;19920;-71
2024/01/05 14:34:35;;;;;;;;;;;9.20;99.90;;;;;;5062557;28;19931;-69
2024/01/05 14:37:07;;;;;;;;;;;9.20;99.90;;;;;;5040847;28;19928;-69
2024/01/05 14:39:37;;;;;;;;;;;9.10;99.90;;;;;;5060337;28;19928;-69